createdAt,value
2023-02-15T00:01:34.597Z,66.73
2023-02-15T00:05:38.457Z,27.30
2023-02-15T00:09:41.134Z,25.30
2023-02-15T00:13:49.020Z,23.93
2023-02-15T00:17:51.691Z,32.30
2023-02-15T00:21:54.608Z,26.00
2023-02-15T00:26:06.046Z,24.73
2023-02-15T00:30:11.213Z,27.70
2023-02-15T00:34:16.276Z,29.90
2023-02-15T00:38:18.901Z,37.30
2023-02-15T00:42:21.551Z,28.17
2023-02-15T00:46:25.625Z,61.53
2023-02-15T00:50:28.362Z,34.13
2023-02-15T00:54:31.044Z,27.67
2023-02-15T00:58:33.741Z,22.53
2023-02-15T01:02:37.776Z,33.50
2023-02-15T01:06:40.525Z,82.90
2023-02-15T01:10:44.924Z,20.70
2023-02-15T01:14:47.838Z,32.97
2023-02-15T01:18:52.019Z,17.77
2023-02-15T01:22:55.332Z,40.57
2023-02-15T01:26:57.941Z,18.90
2023-02-15T01:31:01.161Z,23.77
2023-02-15T01:35:05.595Z,43.20
2023-02-15T01:39:10.382Z,38.63
2023-02-15T01:43:14.224Z,41.73
2023-02-15T01:47:18.892Z,34.20
2023-02-15T01:51:26.040Z,24.87
2023-02-15T01:55:32.785Z,24.47
2023-02-15T01:59:37.137Z,53.90
2023-02-15T02:03:46.196Z,22.33
2023-02-15T02:07:53.692Z,22.17
2023-02-15T02:11:56.369Z,21.50
2023-02-15T02:16:04.516Z,19.67
2023-02-15T02:20:29.064Z,15.87
2023-02-15T02:25:07.337Z,19.57
2023-02-15T02:29:49.809Z,30.57
2023-02-15T02:34:01.666Z,16.93
2023-02-15T02:38:11.559Z,60.63
2023-02-15T02:42:18.419Z,28.13
2023-02-15T02:46:23.882Z,27.60
2023-02-15T02:50:29.832Z,21.63
2023-02-15T02:54:33.121Z,16.50
2023-02-15T02:58:41.141Z,23.43
2023-02-15T03:02:47.122Z,28.87
2023-02-15T03:06:52.998Z,26.40
2023-02-15T03:10:58.701Z,18.43
2023-02-15T03:15:03.728Z,31.87
2023-02-15T03:19:14.000Z,25.63
2023-02-15T03:23:20.257Z,23.27
2023-02-15T03:27:26.357Z,17.20
2023-02-15T03:31:30.975Z,16.67
2023-02-15T03:35:38.263Z,18.40
2023-02-15T03:39:47.358Z,20.73
2023-02-15T03:43:53.895Z,17.60
2023-02-15T03:47:58.468Z,16.23
2023-02-15T03:52:02.482Z,17.73
2023-02-15T03:56:06.892Z,19.77
2023-02-15T04:00:32.461Z,18.60
2023-02-15T04:04:36.750Z,18.17
2023-02-15T04:08:57.061Z,18.80
2023-02-15T04:13:01.333Z,15.50
2023-02-15T04:17:07.506Z,18.17
2023-02-15T04:21:27.584Z,25.47
2023-02-15T04:25:30.279Z,16.57
2023-02-15T04:29:34.573Z,25.70
2023-02-15T04:33:37.558Z,18.93
2023-02-15T04:37:40.647Z,17.43
2023-02-15T04:41:43.484Z,18.93
2023-02-15T04:45:51.497Z,56.40
2023-02-15T04:49:55.507Z,15.27
2023-02-15T04:53:59.661Z,17.60
2023-02-15T04:58:02.389Z,14.00
2023-02-15T05:02:06.774Z,13.73
2023-02-15T05:06:09.702Z,14.20
2023-02-15T05:10:12.467Z,13.30
2023-02-15T05:14:15.399Z,14.67
2023-02-15T05:18:20.582Z,23.30
2023-02-15T05:22:23.239Z,19.63
2023-02-15T05:26:44.023Z,15.47
2023-02-15T05:30:46.834Z,18.10
2023-02-15T05:34:51.202Z,19.27
2023-02-15T05:38:54.162Z,20.27
2023-02-15T05:42:58.353Z,14.10
2023-02-15T05:47:01.091Z,25.67
2023-02-15T05:51:06.883Z,13.73
2023-02-15T05:55:10.557Z,14.03
2023-02-15T05:59:13.693Z,15.17
2023-02-15T06:03:16.687Z,21.37
2023-02-15T06:07:21.180Z,19.70
2023-02-15T06:11:24.143Z,13.90
2023-02-15T06:15:26.876Z,13.57
2023-02-15T06:19:29.533Z,15.70
2023-02-15T06:23:33.601Z,18.97
2023-02-15T06:27:36.457Z,14.33
2023-02-15T06:31:39.505Z,20.43
2023-02-15T06:35:42.548Z,30.00
2023-02-15T06:39:46.853Z,21.53
2023-02-15T06:43:49.594Z,18.33
2023-02-15T06:47:52.319Z,18.07
2023-02-15T06:51:55.027Z,19.20
2023-02-15T06:56:07.346Z,18.20
2023-02-15T07:00:11.246Z,20.03
2023-02-15T07:04:13.988Z,29.00
2023-02-15T07:08:16.976Z,17.37
2023-02-15T07:12:38.448Z,17.70
2023-02-15T07:16:41.169Z,19.63
2023-02-15T07:20:43.869Z,22.23
2023-02-15T07:24:46.620Z,19.43
2023-02-15T07:28:50.704Z,18.97
2023-02-15T07:33:14.684Z,32.67
2023-02-15T07:37:17.511Z,21.47
2023-02-15T07:41:20.268Z,18.47
2023-02-15T07:45:24.566Z,18.07
2023-02-15T07:49:27.278Z,17.33
2023-02-15T07:53:30.478Z,26.23
2023-02-15T07:57:33.472Z,37.20
2023-02-15T08:01:38.919Z,17.17
2023-02-15T08:05:42.528Z,17.97
2023-02-15T08:09:45.198Z,22.20
2023-02-15T08:13:54.688Z,24.53
2023-02-15T08:17:59.064Z,18.27
2023-02-15T08:22:03.076Z,18.17
2023-02-15T08:26:06.512Z,19.80
2023-02-15T08:30:10.244Z,20.20
2023-02-15T08:34:18.902Z,42.73
2023-02-15T08:38:21.686Z,29.57
2023-02-15T08:42:24.474Z,19.43
2023-02-15T08:46:28.903Z,18.80
2023-02-15T08:50:32.959Z,18.77
2023-02-15T08:54:35.985Z,18.20
2023-02-15T08:58:38.906Z,20.27
2023-02-15T09:02:41.894Z,18.67
2023-02-15T09:06:48.628Z,19.47
2023-02-15T09:10:51.841Z,20.60
2023-02-15T09:14:54.614Z,22.97
2023-02-15T09:18:58.510Z,21.97
2023-02-15T09:23:02.559Z,22.43
2023-02-15T09:27:05.326Z,15.77
2023-02-15T09:31:12.705Z,19.33
2023-02-15T09:35:15.508Z,19.47
2023-02-15T09:39:20.866Z,19.13
2023-02-15T09:43:32.054Z,21.37
2023-02-15T09:47:51.392Z,20.40
2023-02-15T09:52:04.542Z,23.00
2023-02-15T09:56:13.498Z,20.57
2023-02-15T10:00:22.023Z,22.13
2023-02-15T10:04:39.069Z,21.60
2023-02-15T10:09:06.262Z,20.47
2023-02-15T10:13:26.707Z,17.97
2023-02-15T10:17:44.688Z,20.90
2023-02-15T10:21:57.106Z,18.37
2023-02-15T10:26:05.152Z,17.13
2023-02-15T10:30:12.719Z,18.87
2023-02-15T10:34:18.600Z,20.13
2023-02-15T10:38:26.777Z,19.98
2023-02-15T10:42:33.277Z,22.60
2023-02-15T10:46:58.268Z,18.37
2023-02-15T10:51:02.897Z,19.23
2023-02-15T10:55:11.893Z,19.73
2023-02-15T10:59:32.979Z,18.23
2023-02-15T11:03:51.426Z,19.57
2023-02-15T11:07:57.941Z,20.23
2023-02-15T11:12:01.696Z,19.97
2023-02-15T11:16:06.993Z,19.53
2023-02-15T11:20:19.028Z,19.17
2023-02-15T11:24:23.292Z,18.03
2023-02-15T11:28:32.576Z,19.67
2023-02-15T11:32:36.410Z,18.07
2023-02-15T11:36:42.691Z,18.87
2023-02-15T11:40:49.883Z,18.23
2023-02-15T11:44:58.938Z,16.67
2023-02-15T11:49:02.693Z,18.00
2023-02-15T11:53:11.909Z,16.70
2023-02-15T11:57:19.024Z,16.53
2023-02-15T12:01:25.240Z,18.57
2023-02-15T12:05:28.625Z,17.77
2023-02-15T12:09:36.789Z,20.93
2023-02-15T12:13:55.879Z,23.30
2023-02-15T12:17:58.892Z,19.17
2023-02-15T12:22:03.503Z,18.93
2023-02-15T12:26:07.679Z,19.07
2023-02-15T12:30:19.661Z,18.17
2023-02-15T12:34:24.831Z,19.47
2023-02-15T12:38:29.284Z,18.67
2023-02-15T12:42:45.424Z,19.87
2023-02-15T12:46:59.454Z,20.63
2023-02-15T12:51:10.512Z,19.37
2023-02-15T12:55:21.190Z,20.90
2023-02-15T12:59:25.912Z,19.80
2023-02-15T13:03:28.889Z,22.67
2023-02-15T13:07:33.414Z,21.90
2023-02-15T13:11:38.178Z,22.63
2023-02-15T13:15:43.497Z,22.67
2023-02-15T13:19:48.987Z,21.67
2023-02-15T13:23:57.851Z,21.07
2023-02-15T13:28:03.872Z,23.27
2023-02-15T13:32:12.810Z,22.40
2023-02-15T13:36:21.701Z,22.00
2023-02-15T13:40:27.362Z,22.20
2023-02-15T13:44:44.580Z,23.40
2023-02-15T13:48:57.344Z,21.43
2023-02-15T13:53:10.060Z,25.03
2023-02-15T13:57:29.813Z,23.30
2023-02-15T14:01:40.272Z,23.27
2023-02-15T14:05:59.092Z,22.77
2023-02-15T14:10:16.169Z,20.33
2023-02-15T14:14:42.224Z,24.20
2023-02-15T14:18:49.035Z,26.70
2023-02-15T14:22:58.314Z,24.80
2023-02-15T14:27:08.245Z,25.97
2023-02-15T14:31:13.843Z,24.63
2023-02-15T14:35:18.142Z,26.33
2023-02-15T14:39:52.845Z,26.13
2023-02-15T14:44:02.784Z,23.50
2023-02-15T14:48:11.314Z,24.87
2023-02-15T14:52:14.688Z,24.10
2023-02-15T14:56:31.172Z,22.70
2023-02-15T15:00:39.955Z,25.17
2023-02-15T15:04:45.535Z,20.87
2023-02-15T15:08:48.249Z,22.37
2023-02-15T15:12:53.412Z,22.80
2023-02-15T15:16:56.180Z,24.27
2023-02-15T15:20:58.867Z,22.93
2023-02-15T15:25:02.422Z,21.87
2023-02-15T15:29:09.360Z,22.10
2023-02-15T15:33:25.956Z,24.30
2023-02-15T15:37:53.783Z,21.83
2023-02-15T15:42:03.632Z,22.07
2023-02-15T15:46:27.807Z,24.27
2023-02-15T15:50:31.058Z,22.47
2023-02-15T15:54:33.848Z,24.73
2023-02-15T15:58:43.934Z,24.73
2023-02-15T16:02:54.274Z,26.67
2023-02-15T16:06:57.908Z,24.57
2023-02-15T16:11:01.219Z,22.67
2023-02-15T16:15:07.353Z,22.10
2023-02-15T16:19:20.829Z,24.73
2023-02-15T16:23:48.678Z,22.67
2023-02-15T16:27:54.658Z,24.13
2023-02-15T16:32:02.510Z,24.90
2023-02-15T16:36:08.820Z,24.50
2023-02-15T16:40:33.410Z,29.17
2023-02-15T16:44:36.221Z,23.17
2023-02-15T16:48:42.538Z,27.90
2023-02-15T16:52:47.163Z,26.63
2023-02-15T16:56:50.033Z,26.60
2023-02-15T17:00:52.799Z,24.33
2023-02-15T17:05:08.905Z,30.70
2023-02-15T17:09:20.506Z,37.50
2023-02-15T17:13:23.172Z,39.57
2023-02-15T17:17:25.879Z,32.33
2023-02-15T17:21:34.821Z,35.10
2023-02-15T17:25:43.208Z,32.30
2023-02-15T17:29:48.182Z,27.70
2023-02-15T17:33:55.314Z,30.90
2023-02-15T17:38:07.344Z,27.60
2023-02-15T17:42:11.509Z,28.27
2023-02-15T17:46:14.345Z,28.60
2023-02-15T17:50:20.098Z,31.40
2023-02-15T17:54:40.858Z,29.87
2023-02-15T17:58:44.973Z,31.53
2023-02-15T18:03:05.597Z,34.00
2023-02-15T18:07:27.757Z,37.73
2023-02-15T18:11:39.932Z,44.93
2023-02-15T18:15:44.441Z,53.27
2023-02-15T18:19:47.797Z,48.73
2023-02-15T18:23:50.890Z,45.17
2023-02-15T18:27:55.278Z,45.43
2023-02-15T18:32:01.153Z,33.40
2023-02-15T18:36:05.854Z,35.37
2023-02-15T18:40:15.850Z,33.13
2023-02-15T18:44:20.565Z,36.30
2023-02-15T18:48:25.372Z,34.80
2023-02-15T18:52:31.213Z,35.97
2023-02-15T18:56:34.120Z,34.57
2023-02-15T19:00:36.994Z,36.30
2023-02-15T19:04:41.658Z,34.23
2023-02-15T19:08:45.840Z,34.10
2023-02-15T19:12:49.545Z,38.63
2023-02-15T19:16:52.316Z,35.33
2023-02-15T19:20:56.746Z,28.30
2023-02-15T19:25:02.553Z,34.30
2023-02-15T19:29:05.665Z,37.57
2023-02-15T19:33:16.901Z,37.57
2023-02-15T19:37:26.085Z,41.03
2023-02-15T19:41:32.628Z,54.40
2023-02-15T19:45:35.645Z,47.70
2023-02-15T19:49:38.372Z,57.90
2023-02-15T19:53:42.439Z,61.97
2023-02-15T19:57:45.186Z,44.70
2023-02-15T20:01:47.908Z,46.13
2023-02-15T20:05:50.619Z,36.53
2023-02-15T20:09:55.342Z,39.17
2023-02-15T20:13:58.053Z,45.10
2023-02-15T20:18:02.753Z,50.63
2023-02-15T20:22:05.673Z,52.13
2023-02-15T20:26:14.911Z,43.60
2023-02-15T20:30:19.617Z,42.23
2023-02-15T20:34:22.613Z,60.17
2023-02-15T20:38:28.118Z,88.10
2023-02-15T20:42:32.407Z,85.90
2023-02-15T20:46:35.116Z,49.92
2023-02-15T20:50:39.017Z,52.60
2023-02-15T20:54:43.197Z,59.27
2023-02-15T20:58:47.896Z,41.00
2023-02-15T21:02:51.793Z,47.97
2023-02-15T21:06:54.787Z,47.47
2023-02-15T21:11:00.726Z,48.10
2023-02-15T21:15:29.104Z,67.43
2023-02-15T21:19:31.839Z,73.77
2023-02-15T21:23:36.225Z,75.63
2023-02-15T21:27:38.918Z,51.40
2023-02-15T21:31:43.523Z,41.57
2023-02-15T21:35:48.925Z,44.77
2023-02-15T21:39:51.607Z,43.40
2023-02-15T21:44:11.661Z,136.07
2023-02-15T21:48:16.155Z,32.63
2023-02-15T21:52:22.845Z,33.37
2023-02-15T21:56:25.592Z,56.53
2023-02-15T22:00:32.624Z,41.80
2023-02-15T22:04:36.868Z,34.40
2023-02-15T22:08:39.690Z,41.40
2023-02-15T22:12:43.731Z,41.57
2023-02-15T22:16:46.367Z,33.70
2023-02-15T22:20:50.497Z,30.53
2023-02-15T22:24:55.034Z,29.93
2023-02-15T22:28:57.969Z,41.70
2023-02-15T22:33:01.627Z,29.07
2023-02-15T22:37:06.006Z,35.73
2023-02-15T22:41:10.255Z,31.37
2023-02-15T22:45:18.157Z,30.93
2023-02-15T22:49:20.874Z,27.93
2023-02-15T22:53:24.960Z,29.43
2023-02-15T22:57:30.872Z,26.50
2023-02-15T23:01:35.363Z,28.87
2023-02-15T23:05:38.876Z,31.57
2023-02-15T23:09:42.993Z,27.53
2023-02-15T23:13:46.289Z,33.17
2023-02-15T23:17:48.975Z,35.30
2023-02-15T23:21:52.149Z,30.77
2023-02-15T23:25:56.223Z,31.23
2023-02-15T23:29:59.361Z,29.77
2023-02-15T23:34:04.079Z,27.10
2023-02-15T23:38:18.663Z,28.00
2023-02-15T23:42:25.745Z,28.77
2023-02-15T23:46:31.597Z,28.37
2023-02-15T23:50:34.449Z,28.30
2023-02-15T23:54:37.134Z,30.93
2023-02-15T23:58:43.422Z,31.10
